sensor_id;sensor_type;location;lat;lon;timestamp;pressure;altitude;pressure_sealevel;temperature;humidity
21236;BME280;10775;42.678;26.324;2023-12-14T00:01:56;97924.06;;;6.38;100.00
21236;BME280;10775;42.678;26.324;2023-12-14T00:04:22;97924.88;;;6.40;100.00
21236;BME280;10775;42.678;26.324;2023-12-14T00:06:47;97918.00;;;6.37;100.00
21236;BME280;10775;42.678;26.324;2023-12-14T00:09:12;97918.88;;;6.36;100.00
21236;BME280;10775;42.678;26.324;2023-12-14T00:11:38;97930.16;;;6.34;100.00
21236;BME280;10775;42.678;26.324;2023-12-14T00:14:04;97924.16;;;6.30;100.00
21236;BME280;10775;42.678;26.324;2023-12-14T00:16:30;97936.25;;;6.31;100.00
21236;BME280;10775;42.678;26.324;2023-12-14T00:18:55;97940.59;;;6.30;100.00
21236;BME280;10775;42.678;26.324;2023-12-14T00:21:21;97925.91;;;6.29;100.00
21236;BME280;10775;42.678;26.324;2023-12-14T00:23:46;97934.56;;;6.28;100.00
21236;BME280;10775;42.678;26.324;2023-12-14T00:26:12;97930.25;;;6.27;100.00
21236;BME280;10775;42.678;26.324;2023-12-14T00:28:37;97931.16;;;6.26;100.00
21236;BME280;10775;42.678;26.324;2023-12-14T00:31:03;97933.75;;;6.25;100.00
21236;BME280;10775;42.678;26.324;2023-12-14T00:33:29;97940.75;;;6.21;100.00
21236;BME280;10775;42.678;26.324;2023-12-14T00:35:54;97932.91;;;6.23;100.00
21236;BME280;10775;42.678;26.324;2023-12-14T00:38:20;97939.84;;;6.24;100.00
21236;BME280;10775;42.678;26.324;2023-12-14T00:40:45;97943.31;;;6.23;100.00
21236;BME280;10775;42.678;26.324;2023-12-14T00:43:11;97936.44;;;6.19;100.00
21236;BME280;10775;42.678;26.324;2023-12-14T00:45:36;97939.00;;;6.20;100.00
21236;BME280;10775;42.678;26.324;2023-12-14T00:48:01;97946.78;;;6.22;100.00
21236;BME280;10775;42.678;26.324;2023-12-14T00:50:27;97939.00;;;6.22;100.00
21236;BME280;10775;42.678;26.324;2023-12-14T00:52:52;97955.41;;;6.24;100.00
21236;BME280;10775;42.678;26.324;2023-12-14T00:55:18;97949.44;;;6.17;100.00
21236;BME280;10775;42.678;26.324;2023-12-14T00:57:43;97950.28;;;6.19;100.00
21236;BME280;10775;42.678;26.324;2023-12-14T01:00:09;97949.34;;;6.23;100.00
21236;BME280;10775;42.678;26.324;2023-12-14T01:02:36;97952.03;;;6.19;100.00
21236;BME280;10775;42.678;26.324;2023-12-14T01:05:01;97945.16;;;6.16;100.00
21236;BME280;10775;42.678;26.324;2023-12-14T01:07:27;97932.16;;;6.16;100.00
21236;BME280;10775;42.678;26.324;2023-12-14T01:09:52;97941.69;;;6.14;100.00
21236;BME280;10775;42.678;26.324;2023-12-14T01:12:17;97946.84;;;6.19;100.00
21236;BME280;10775;42.678;26.324;2023-12-14T01:14:43;97936.44;;;6.19;100.00
21236;BME280;10775;42.678;26.324;2023-12-14T01:17:08;97939.91;;;6.18;100.00
21236;BME280;10775;42.678;26.324;2023-12-14T01:19:34;97931.25;;;6.19;100.00
21236;BME280;10775;42.678;26.324;2023-12-14T01:21:59;97931.28;;;6.16;100.00
21236;BME280;10775;42.678;26.324;2023-12-14T01:24:25;97936.47;;;6.16;100.00
21236;BME280;10775;42.678;26.324;2023-12-14T01:26:50;97939.91;;;6.18;100.00
21236;BME280;10775;42.678;26.324;2023-12-14T01:29:16;97926.06;;;6.19;100.00
21236;BME280;10775;42.678;26.324;2023-12-14T01:31:41;97932.13;;;6.18;100.00
21236;BME280;10775;42.678;26.324;2023-12-14T01:34:07;97930.41;;;6.17;100.00
21236;BME280;10775;42.678;26.324;2023-12-14T01:36:33;97920.03;;;6.17;100.00
21236;BME280;10775;42.678;26.324;2023-12-14T01:38:59;97920.84;;;6.20;100.00
21236;BME280;10775;42.678;26.324;2023-12-14T01:41:24;97929.41;;;6.25;100.00
21236;BME280;10775;42.678;26.324;2023-12-14T01:43:50;97921.56;;;6.28;100.00
21236;BME280;10775;42.678;26.324;2023-12-14T01:46:15;97912.03;;;6.30;100.00
21236;BME280;10775;42.678;26.324;2023-12-14T01:48:41;97904.31;;;6.27;100.00
21236;BME280;10775;42.678;26.324;2023-12-14T01:51:07;97905.13;;;6.29;100.00
21236;BME280;10775;42.678;26.324;2023-12-14T01:53:33;97894.78;;;6.28;100.00
21236;BME280;10775;42.678;26.324;2023-12-14T01:55:58;97892.16;;;6.28;100.00
21236;BME280;10775;42.678;26.324;2023-12-14T01:58:24;97904.31;;;6.27;100.00
21236;BME280;10775;42.678;26.324;2023-12-14T02:01:16;97905.09;;;6.31;100.00
21236;BME280;10775;42.678;26.324;2023-12-14T02:03:46;97903.28;;;6.36;100.00
21236;BME280;10775;42.678;26.324;2023-12-14T02:06:12;97903.25;;;6.39;100.00
21236;BME280;10775;42.678;26.324;2023-12-14T02:08:38;97903.16;;;6.45;100.00
21236;BME280;10775;42.678;26.324;2023-12-14T02:11:03;97904.06;;;6.43;100.00
21236;BME280;10775;42.678;26.324;2023-12-14T02:13:28;97904.13;;;6.40;100.00
21236;BME280;10775;42.678;26.324;2023-12-14T02:15:54;97886.00;;;6.37;100.00
21236;BME280;10775;42.678;26.324;2023-12-14T02:18:19;97894.63;;;6.37;100.00
21236;BME280;10775;42.678;26.324;2023-12-14T02:20:45;97892.94;;;6.35;100.00
21236;BME280;10775;42.678;26.324;2023-12-14T02:23:10;97892.72;;;6.48;100.00
21236;BME280;10775;42.678;26.324;2023-12-14T02:25:36;97877.13;;;6.48;100.00
21236;BME280;10775;42.678;26.324;2023-12-14T02:28:01;97884.84;;;6.53;100.00
21236;BME280;10775;42.678;26.324;2023-12-14T02:30:27;97873.63;;;6.52;100.00
21236;BME280;10775;42.678;26.324;2023-12-14T02:32:52;97871.09;;;6.48;100.00
21236;BME280;10775;42.678;26.324;2023-12-14T02:35:18;97875.31;;;6.55;100.00
21236;BME280;10775;42.678;26.324;2023-12-14T02:37:43;97870.94;;;6.57;100.00
21236;BME280;10775;42.678;26.324;2023-12-14T02:40:09;97865.69;;;6.60;100.00
21236;BME280;10775;42.678;26.324;2023-12-14T02:42:35;97869.94;;;6.66;100.00
21236;BME280;10775;42.678;26.324;2023-12-14T02:45:01;97862.84;;;6.74;100.00
21236;BME280;10775;42.678;26.324;2023-12-14T02:47:28;97871.38;;;6.82;100.00
21236;BME280;10775;42.678;26.324;2023-12-14T02:49:54;97865.38;;;6.80;100.00
21236;BME280;10775;42.678;26.324;2023-12-14T02:52:19;97868.81;;;6.79;100.00
21236;BME280;10775;42.678;26.324;2023-12-14T02:54:45;97875.50;;;6.92;100.00
21236;BME280;10775;42.678;26.324;2023-12-14T02:57:10;97855.75;;;6.85;100.00
21236;BME280;10775;42.678;26.324;2023-12-14T02:59:35;97863.50;;;6.87;100.00
21236;BME280;10775;42.678;26.324;2023-12-14T03:02:01;97870.38;;;6.89;100.00
21236;BME280;10775;42.678;26.324;2023-12-14T03:04:26;97870.44;;;6.85;100.00
21236;BME280;10775;42.678;26.324;2023-12-14T03:06:52;97870.38;;;6.89;100.00
21236;BME280;10775;42.678;26.324;2023-12-14T03:09:18;97872.13;;;6.87;100.00
21236;BME280;10775;42.678;26.324;2023-12-14T03:11:44;97869.69;;;6.80;100.00
21236;BME280;10775;42.678;26.324;2023-12-14T03:14:10;97876.69;;;6.74;100.00
21236;BME280;10775;42.678;26.324;2023-12-14T03:16:36;97885.50;;;6.66;100.00
21236;BME280;10775;42.678;26.324;2023-12-14T03:19:02;97889.13;;;6.57;100.00
21236;BME280;10775;42.678;26.324;2023-12-14T03:21:28;97891.72;;;6.57;100.00
21236;BME280;10775;42.678;26.324;2023-12-14T03:23:54;97897.72;;;6.62;100.00
21236;BME280;10775;42.678;26.324;2023-12-14T03:26:20;97900.38;;;6.58;100.00
21236;BME280;10775;42.678;26.324;2023-12-14T03:28:45;97898.75;;;6.52;100.00
21236;BME280;10775;42.678;26.324;2023-12-14T03:31:11;97902.19;;;6.51;100.00
21236;BME280;10775;42.678;26.324;2023-12-14T03:33:38;97904.75;;;6.54;100.00
21236;BME280;10775;42.678;26.324;2023-12-14T03:36:04;97916.75;;;6.63;100.00
21236;BME280;10775;42.678;26.324;2023-12-14T03:38:30;97917.53;;;6.66;100.00
21236;BME280;10775;42.678;26.324;2023-12-14T03:40:55;97915.72;;;6.71;100.00
21236;BME280;10775;42.678;26.324;2023-12-14T03:43:21;97912.31;;;6.68;100.00
21236;BME280;10775;42.678;26.324;2023-12-14T03:45:46;97917.53;;;6.68;100.00
21236;BME280;10775;42.678;26.324;2023-12-14T03:48:11;97913.09;;;6.73;100.00
21236;BME280;10775;42.678;26.324;2023-12-14T03:50:37;97908.78;;;6.72;100.00
21236;BME280;10775;42.678;26.324;2023-12-14T03:53:02;97912.09;;;6.82;100.00
21236;BME280;10775;42.678;26.324;2023-12-14T03:55:28;97904.28;;;6.83;100.00
21236;BME280;10775;42.678;26.324;2023-12-14T03:57:53;97906.81;;;6.86;100.00
21236;BME280;10775;42.678;26.324;2023-12-14T04:00:19;97918.19;;;6.79;100.00
21236;BME280;10775;42.678;26.324;2023-12-14T04:02:44;97904.53;;;6.68;100.00
21236;BME280;10775;42.678;26.324;2023-12-14T04:05:10;97900.19;;;6.68;100.00
21236;BME280;10775;42.678;26.324;2023-12-14T04:07:36;97910.66;;;6.64;100.00
21236;BME280;10775;42.678;26.324;2023-12-14T04:10:02;97904.66;;;6.59;100.00
21236;BME280;10775;42.678;26.324;2023-12-14T04:12:27;97902.91;;;6.61;100.00
21236;BME280;10775;42.678;26.324;2023-12-14T04:14:53;97902.91;;;6.61;100.00
21236;BME280;10775;42.678;26.324;2023-12-14T04:17:18;97900.25;;;6.64;100.00
21236;BME280;10775;42.678;26.324;2023-12-14T04:19:44;97898.50;;;6.67;100.00
21236;BME280;10775;42.678;26.324;2023-12-14T04:22:09;97894.16;;;6.68;100.00
21236;BME280;10775;42.678;26.324;2023-12-14T04:24:35;97894.19;;;6.65;100.00
21236;BME280;10775;42.678;26.324;2023-12-14T04:27:00;97913.19;;;6.67;100.00
21236;BME280;10775;42.678;26.324;2023-12-14T04:29:26;97908.00;;;6.67;100.00
21236;BME280;10775;42.678;26.324;2023-12-14T04:31:51;97905.41;;;6.67;100.00
21236;BME280;10775;42.678;26.324;2023-12-14T04:34:18;97909.69;;;6.69;100.00
21236;BME280;10775;42.678;26.324;2023-12-14T04:36:47;97916.63;;;6.70;100.00
21236;BME280;10775;42.678;26.324;2023-12-14T04:39:13;97913.97;;;6.73;100.00
21236;BME280;10775;42.678;26.324;2023-12-14T04:41:39;97920.84;;;6.74;100.00
21236;BME280;10775;42.678;26.324;2023-12-14T04:44:04;97915.66;;;6.76;100.00
21236;BME280;10775;42.678;26.324;2023-12-14T04:46:30;97893.06;;;6.80;100.00
21236;BME280;10775;42.678;26.324;2023-12-14T04:48:55;97897.38;;;6.81;100.00
21236;BME280;10775;42.678;26.324;2023-12-14T04:51:21;97912.13;;;6.79;100.00
21236;BME280;10775;42.678;26.324;2023-12-14T04:53:46;97906.06;;;6.80;100.00
21236;BME280;10775;42.678;26.324;2023-12-14T04:56:12;97897.41;;;6.79;100.00
21236;BME280;10775;42.678;26.324;2023-12-14T04:58:41;97910.44;;;6.78;100.00
21236;BME280;10775;42.678;26.324;2023-12-14T05:01:07;97915.66;;;6.74;100.00
21236;BME280;10775;42.678;26.324;2023-12-14T05:03:35;97895.75;;;6.75;100.00
21236;BME280;10775;42.678;26.324;2023-12-14T05:06:01;97890.50;;;6.78;100.00
21236;BME280;10775;42.678;26.324;2023-12-14T05:08:27;97896.53;;;6.80;100.00
21236;BME280;10775;42.678;26.324;2023-12-14T05:10:52;97883.56;;;6.80;100.00
21236;BME280;10775;42.678;26.324;2023-12-14T05:13:17;97893.91;;;6.82;100.00
21236;BME280;10775;42.678;26.324;2023-12-14T05:15:43;97891.34;;;6.80;100.00
21236;BME280;10775;42.678;26.324;2023-12-14T05:18:09;97891.28;;;6.83;100.00
21236;BME280;10775;42.678;26.324;2023-12-14T05:20:35;97880.13;;;6.78;100.00
21236;BME280;10775;42.678;26.324;2023-12-14T05:23:01;97893.94;;;6.80;100.00
21236;BME280;10775;42.678;26.324;2023-12-14T05:25:27;97894.84;;;6.78;100.00
21236;BME280;10775;42.678;26.324;2023-12-14T05:27:53;97894.00;;;6.75;100.00
21236;BME280;10775;42.678;26.324;2023-12-14T05:30:18;97884.41;;;6.79;100.00
21236;BME280;10775;42.678;26.324;2023-12-14T05:32:44;97886.16;;;6.77;100.00
21236;BME280;10775;42.678;26.324;2023-12-14T05:35:10;97873.22;;;6.75;100.00
21236;BME280;10775;42.678;26.324;2023-12-14T05:37:36;97884.47;;;6.74;100.00
21236;BME280;10775;42.678;26.324;2023-12-14T05:40:02;97880.97;;;6.77;100.00
21236;BME280;10775;42.678;26.324;2023-12-14T05:42:28;97887.91;;;6.77;100.00
21236;BME280;10775;42.678;26.324;2023-12-14T05:44:53;97888.81;;;6.75;100.00
21236;BME280;10775;42.678;26.324;2023-12-14T05:47:19;97897.47;;;6.76;100.00
21236;BME280;10775;42.678;26.324;2023-12-14T05:49:45;97895.75;;;6.75;100.00
21236;BME280;10775;42.678;26.324;2023-12-14T05:52:11;97885.41;;;6.72;100.00
21236;BME280;10775;42.678;26.324;2023-12-14T05:54:37;97882.78;;;6.75;100.00
21236;BME280;10775;42.678;26.324;2023-12-14T05:57:03;97887.97;;;6.75;100.00
21236;BME280;10775;42.678;26.324;2023-12-14T05:59:28;97889.69;;;6.74;100.00
21236;BME280;10775;42.678;26.324;2023-12-14T06:01:57;97898.25;;;6.81;100.00
21236;BME280;10775;42.678;26.324;2023-12-14T06:04:25;97899.84;;;6.88;100.00
21236;BME280;10775;42.678;26.324;2023-12-14T06:06:50;97895.44;;;6.93;100.00
21236;BME280;10775;42.678;26.324;2023-12-14T06:09:16;97904.03;;;6.97;100.00
21236;BME280;10775;42.678;26.324;2023-12-14T06:11:43;97909.13;;;7.02;100.00
21236;BME280;10775;42.678;26.324;2023-12-14T06:14:08;97895.38;;;6.96;100.00
21236;BME280;10775;42.678;26.324;2023-12-14T06:16:34;97904.00;;;6.99;100.00
21236;BME280;10775;42.678;26.324;2023-12-14T06:18:59;97909.13;;;7.02;100.00
21236;BME280;10775;42.678;26.324;2023-12-14T06:21:25;97918.63;;;7.06;100.00
21236;BME280;10775;42.678;26.324;2023-12-14T06:23:53;97919.38;;;7.11;100.00
21236;BME280;10775;42.678;26.324;2023-12-14T06:26:19;97935.72;;;7.17;100.00
21236;BME280;10775;42.678;26.324;2023-12-14T06:28:44;97926.97;;;7.22;100.00
21236;BME280;10775;42.678;26.324;2023-12-14T06:31:13;97939.94;;;7.23;100.00
21236;BME280;10775;42.678;26.324;2023-12-14T06:33:39;97939.91;;;7.26;100.00
21236;BME280;10775;42.678;26.324;2023-12-14T06:36:06;97932.03;;;7.29;100.00
21236;BME280;10775;42.678;26.324;2023-12-14T06:38:32;97932.75;;;7.36;100.00
21236;BME280;10775;42.678;26.324;2023-12-14T06:40:58;97940.47;;;7.42;100.00
21236;BME280;10775;42.678;26.324;2023-12-14T06:43:23;97936.00;;;7.49;100.00
21236;BME280;10775;42.678;26.324;2023-12-14T06:45:49;97931.53;;;7.55;100.00
21236;BME280;10775;42.678;26.324;2023-12-14T06:48:14;97918.44;;;7.60;100.00
21236;BME280;10775;42.678;26.324;2023-12-14T06:50:40;97923.50;;;7.68;100.00
21236;BME280;10775;42.678;26.324;2023-12-14T06:53:05;97924.44;;;7.63;100.00
21236;BME280;10775;42.678;26.324;2023-12-14T06:55:31;97925.19;;;7.69;100.00
21236;BME280;10775;42.678;26.324;2023-12-14T06:57:56;97918.19;;;7.72;100.00
21236;BME280;10775;42.678;26.324;2023-12-14T07:00:22;97927.56;;;7.81;100.00
21236;BME280;10775;42.678;26.324;2023-12-14T07:02:47;97938.78;;;7.83;100.00
21236;BME280;10775;42.678;26.324;2023-12-14T07:05:13;97938.69;;;7.88;100.00
21236;BME280;10775;42.678;26.324;2023-12-14T07:07:38;97936.78;;;7.96;100.00
21236;BME280;10775;42.678;26.324;2023-12-14T07:10:04;97938.41;;;8.00;100.00
21236;BME280;10775;42.678;26.324;2023-12-14T07:12:29;97942.66;;;8.05;100.00
21236;BME280;10775;42.678;26.324;2023-12-14T07:14:55;97942.59;;;8.09;100.00
21236;BME280;10775;42.678;26.324;2023-12-14T07:17:20;97943.38;;;8.12;100.00
21236;BME280;10775;42.678;26.324;2023-12-14T07:19:46;97944.22;;;8.13;100.00
21236;BME280;10775;42.678;26.324;2023-12-14T07:22:11;97951.84;;;8.20;100.00
21236;BME280;10775;42.678;26.324;2023-12-14T07:24:36;97952.69;;;8.22;100.00
21236;BME280;10775;42.678;26.324;2023-12-14T07:27:02;97956.84;;;8.31;100.00
21236;BME280;10775;42.678;26.324;2023-12-14T07:29:28;97947.19;;;8.36;100.00
21236;BME280;10775;42.678;26.324;2023-12-14T07:31:53;97942.72;;;8.43;100.00
21236;BME280;10775;42.678;26.324;2023-12-14T07:34:19;97949.66;;;8.44;100.00
21236;BME280;10775;42.678;26.324;2023-12-14T07:36:45;97944.22;;;8.53;100.00
21236;BME280;10775;42.678;26.324;2023-12-14T07:39:11;97949.34;;;8.56;100.00
21236;BME280;10775;42.678;26.324;2023-12-14T07:41:37;97939.66;;;8.61;100.00
21236;BME280;10775;42.678;26.324;2023-12-14T07:44:03;97952.66;;;8.64;100.00
21236;BME280;10775;42.678;26.324;2023-12-14T07:46:29;97949.97;;;8.67;100.00
21236;BME280;10775;42.678;26.324;2023-12-14T07:48:55;97951.63;;;8.70;100.00
21236;BME280;10775;42.678;26.324;2023-12-14T07:51:20;97957.78;;;8.67;100.00
21236;BME280;10775;42.678;26.324;2023-12-14T07:53:46;97956.47;;;8.85;100.00
21236;BME280;10775;42.678;26.324;2023-12-14T07:56:12;97956.31;;;8.91;100.00
21236;BME280;10775;42.678;26.324;2023-12-14T07:58:37;97952.84;;;8.92;100.00
21236;BME280;10775;42.678;26.324;2023-12-14T08:01:03;97957.88;;;8.99;100.00
21236;BME280;10775;42.678;26.324;2023-12-14T08:03:28;97949.09;;;9.03;100.00
21236;BME280;10775;42.678;26.324;2023-12-14T08:05:54;97957.53;;;9.12;100.00
21236;BME280;10775;42.678;26.324;2023-12-14T08:08:19;97953.88;;;9.20;100.00
21236;BME280;10775;42.678;26.324;2023-12-14T08:10:45;97955.47;;;9.25;100.00
21236;BME280;10775;42.678;26.324;2023-12-14T08:13:10;97950.88;;;9.35;100.00
21236;BME280;10775;42.678;26.324;2023-12-14T08:15:36;97940.19;;;9.44;100.00
21236;BME280;10775;42.678;26.324;2023-12-14T08:18:01;97946.91;;;9.53;100.00
21236;BME280;10775;42.678;26.324;2023-12-14T08:20:27;97948.66;;;9.52;100.00
21236;BME280;10775;42.678;26.324;2023-12-14T08:22:52;97944.81;;;9.66;100.00
21236;BME280;10775;42.678;26.324;2023-12-14T08:25:18;97956.97;;;9.67;100.00
21236;BME280;10775;42.678;26.324;2023-12-14T08:27:43;97948.88;;;9.76;100.00
21236;BME280;10775;42.678;26.324;2023-12-14T08:30:10;97942.41;;;9.89;100.00
21236;BME280;10775;42.678;26.324;2023-12-14T08:32:36;97951.78;;;9.96;100.00
21236;BME280;10775;42.678;26.324;2023-12-14T08:35:01;97947.16;;;10.05;100.00
21236;BME280;10775;42.678;26.324;2023-12-14T08:37:27;97952.13;;;10.14;100.00
21236;BME280;10775;42.678;26.324;2023-12-14T08:39:52;97950.78;;;10.00;100.00
21236;BME280;10775;42.678;26.324;2023-12-14T08:42:18;97939.81;;;10.17;100.00
21236;BME280;10775;42.678;26.324;2023-12-14T08:44:43;97937.47;;;10.39;100.00
21236;BME280;10775;42.678;26.324;2023-12-14T08:47:08;97933.41;;;10.57;100.00
21236;BME280;10775;42.678;26.324;2023-12-14T08:49:35;97922.59;;;10.68;100.00
21236;BME280;10775;42.678;26.324;2023-12-14T08:52:01;97919.13;;;10.69;100.00
21236;BME280;10775;42.678;26.324;2023-12-14T08:54:27;97925.84;;;10.76;100.00
21236;BME280;10775;42.678;26.324;2023-12-14T08:56:52;97920.00;;;10.68;100.00
21236;BME280;10775;42.678;26.324;2023-12-14T08:59:18;97927.59;;;10.76;100.00
21236;BME280;10775;42.678;26.324;2023-12-14T09:01:45;97928.75;;;10.94;100.00
21236;BME280;10775;42.678;26.324;2023-12-14T09:04:11;97925.34;;;10.92;100.00
21236;BME280;10775;42.678;26.324;2023-12-14T09:06:36;97917.53;;;10.90;100.00
21236;BME280;10775;42.678;26.324;2023-12-14T09:09:02;97914.41;;;11.05;100.00
21236;BME280;10775;42.678;26.324;2023-12-14T09:11:28;97925.44;;;11.15;100.00
21236;BME280;10775;42.678;26.324;2023-12-14T09:13:54;97920.66;;;11.26;100.00
21236;BME280;10775;42.678;26.324;2023-12-14T09:16:20;97924.94;;;11.54;100.00
21236;BME280;10775;42.678;26.324;2023-12-14T09:18:46;97920.16;;;11.65;100.00
21236;BME280;10775;42.678;26.324;2023-12-14T09:21:12;97913.78;;;11.98;100.00
21236;BME280;10775;42.678;26.324;2023-12-14T09:23:37;97902.72;;;12.13;100.00
21236;BME280;10775;42.678;26.324;2023-12-14T09:26:03;97900.16;;;12.33;100.00
21236;BME280;10775;42.678;26.324;2023-12-14T09:28:28;97902.44;;;12.43;100.00
21236;BME280;10775;42.678;26.324;2023-12-14T09:30:54;97895.91;;;12.53;100.00
21236;BME280;10775;42.678;26.324;2023-12-14T09:33:20;97898.09;;;12.64;100.00
21236;BME280;10775;42.678;26.324;2023-12-14T09:35:45;97889.72;;;12.76;100.00
21236;BME280;10775;42.678;26.324;2023-12-14T09:38:11;97896.22;;;12.88;100.00
21236;BME280;10775;42.678;26.324;2023-12-14T09:40:39;97882.88;;;12.94;100.00
21236;BME280;10775;42.678;26.324;2023-12-14T09:43:05;97887.78;;;13.01;100.00
21236;BME280;10775;42.678;26.324;2023-12-14T09:45:30;97894.13;;;13.16;100.00
21236;BME280;10775;42.678;26.324;2023-12-14T09:48:00;97894.78;;;13.21;100.00
21236;BME280;10775;42.678;26.324;2023-12-14T09:50:26;97893.72;;;13.27;100.00
21236;BME280;10775;42.678;26.324;2023-12-14T09:52:52;97885.44;;;13.36;100.00
21236;BME280;10775;42.678;26.324;2023-12-14T09:55:17;97874.69;;;13.42;100.00
21236;BME280;10775;42.678;26.324;2023-12-14T09:57:43;97879.31;;;13.56;100.00
21236;BME280;10775;42.678;26.324;2023-12-14T10:00:09;97889.03;;;13.54;100.00
21236;BME280;10775;42.678;26.324;2023-12-14T10:02:36;97889.13;;;13.53;100.00
21236;BME280;10775;42.678;26.324;2023-12-14T10:05:02;97887.47;;;13.50;100.00
21236;BME280;10775;42.678;26.324;2023-12-14T10:07:30;97879.72;;;13.47;100.00
21236;BME280;10775;42.678;26.324;2023-12-14T10:10:09;97888.31;;;13.51;100.00
21236;BME280;10775;42.678;26.324;2023-12-14T10:12:50;97898.53;;;13.57;100.00
21236;BME280;10775;42.678;26.324;2023-12-14T10:15:16;97901.81;;;13.62;100.00
21236;BME280;10775;42.678;26.324;2023-12-14T10:17:41;97890.13;;;13.69;100.00
21236;BME280;10775;42.678;26.324;2023-12-14T10:20:07;97887.44;;;13.70;99.95
21236;BME280;10775;42.678;26.324;2023-12-14T10:22:34;97902.22;;;13.73;98.83
21236;BME280;10775;42.678;26.324;2023-12-14T10:25:03;97889.56;;;13.81;97.93
21236;BME280;10775;42.678;26.324;2023-12-14T10:27:30;97890.34;;;13.83;97.80
21236;BME280;10775;42.678;26.324;2023-12-14T10:29:57;97888.50;;;13.85;96.59
21236;BME280;10775;42.678;26.324;2023-12-14T10:32:23;97891.75;;;13.90;96.39
21236;BME280;10775;42.678;26.324;2023-12-14T10:34:49;97882.19;;;13.89;96.79
21236;BME280;10775;42.678;26.324;2023-12-14T10:37:15;97882.03;;;13.92;96.68
21236;BME280;10775;42.678;26.324;2023-12-14T10:39:43;97879.41;;;13.92;96.19
21236;BME280;10775;42.678;26.324;2023-12-14T10:42:09;97880.06;;;13.98;97.12
21236;BME280;10775;42.678;26.324;2023-12-14T10:44:36;97858.19;;;13.97;96.17
21236;BME280;10775;42.678;26.324;2023-12-14T10:47:02;97855.19;;;14.05;95.40
21236;BME280;10775;42.678;26.324;2023-12-14T10:49:29;97851.38;;;14.12;95.08
21236;BME280;10775;42.678;26.324;2023-12-14T10:51:57;97851.22;;;14.15;96.02
21236;BME280;10775;42.678;26.324;2023-12-14T10:54:24;97848.63;;;14.13;94.98
21236;BME280;10775;42.678;26.324;2023-12-14T10:56:54;97859.78;;;14.19;95.25
21236;BME280;10775;42.678;26.324;2023-12-14T10:59:20;97851.00;;;14.20;94.92
21236;BME280;10775;42.678;26.324;2023-12-14T11:01:51;97845.28;;;14.29;95.08
21236;BME280;10775;42.678;26.324;2023-12-14T11:04:17;97835.81;;;14.44;93.49
21236;BME280;10775;42.678;26.324;2023-12-14T11:06:43;97837.22;;;14.51;93.72
21236;BME280;10775;42.678;26.324;2023-12-14T11:09:12;97832.94;;;14.48;93.09
21236;BME280;10775;42.678;26.324;2023-12-14T11:11:41;97825.00;;;14.50;93.13
21236;BME280;10775;42.678;26.324;2023-12-14T11:14:11;97827.91;;;14.63;92.78
21236;BME280;10775;42.678;26.324;2023-12-14T11:16:38;97826.53;;;14.73;93.09
21236;BME280;10775;42.678;26.324;2023-12-14T11:22:09;97822.09;;;14.73;92.17
21236;BME280;10775;42.678;26.324;2023-12-14T11:24:36;97807.16;;;14.74;92.13
21236;BME280;10775;42.678;26.324;2023-12-14T11:27:08;97804.94;;;14.84;92.13
21236;BME280;10775;42.678;26.324;2023-12-14T11:29:37;97817.91;;;14.87;92.80
21236;BME280;10775;42.678;26.324;2023-12-14T11:32:05;97812.66;;;14.87;91.81
21236;BME280;10775;42.678;26.324;2023-12-14T11:34:31;97803.06;;;14.86;91.92
21236;BME280;10775;42.678;26.324;2023-12-14T11:36:57;97808.94;;;14.91;92.54
21236;BME280;10775;42.678;26.324;2023-12-14T11:39:22;97811.88;;;15.02;92.37
21236;BME280;10775;42.678;26.324;2023-12-14T11:42:01;97812.25;;;15.12;92.60
21236;BME280;10775;42.678;26.324;2023-12-14T11:44:27;97819.91;;;15.16;91.89
21236;BME280;10775;42.678;26.324;2023-12-14T11:46:53;97816.50;;;15.14;91.99
21236;BME280;10775;42.678;26.324;2023-12-14T11:49:19;97816.81;;;15.08;91.47
21236;BME280;10775;42.678;26.324;2023-12-14T11:51:47;97820.53;;;15.04;92.33
21236;BME280;10775;42.678;26.324;2023-12-14T11:54:13;97815.97;;;15.08;92.72
21236;BME280;10775;42.678;26.324;2023-12-14T11:56:39;97817.19;;;15.00;92.17
21236;BME280;10775;42.678;26.324;2023-12-14T11:59:04;97811.41;;;14.94;92.52
21236;BME280;10775;42.678;26.324;2023-12-14T12:01:30;97817.53;;;14.94;93.19
21236;BME280;10775;42.678;26.324;2023-12-14T12:03:57;97811.72;;;14.88;93.13
21236;BME280;10775;42.678;26.324;2023-12-14T12:06:33;97800.28;;;14.89;93.75
21236;BME280;10775;42.678;26.324;2023-12-14T12:08:58;97800.19;;;14.90;94.15
21236;BME280;10775;42.678;26.324;2023-12-14T12:11:24;97800.91;;;14.94;94.34
21236;BME280;10775;42.678;26.324;2023-12-14T12:13:57;97800.78;;;14.95;94.17
21236;BME280;10775;42.678;26.324;2023-12-14T12:16:22;97793.22;;;14.89;94.83
21236;BME280;10775;42.678;26.324;2023-12-14T12:18:49;97788.75;;;14.91;94.71
21236;BME280;10775;42.678;26.324;2023-12-14T12:21:16;97784.94;;;14.79;95.65
21236;BME280;10775;42.678;26.324;2023-12-14T12:23:41;97785.28;;;14.73;95.81
21236;BME280;10775;42.678;26.324;2023-12-14T12:26:07;97786.81;;;14.77;96.68
21236;BME280;10775;42.678;26.324;2023-12-14T12:28:33;97784.44;;;14.73;96.39
21236;BME280;10775;42.678;26.324;2023-12-14T12:30:58;97786.13;;;14.74;96.89
21236;BME280;10775;42.678;26.324;2023-12-14T12:33:25;97778.28;;;14.72;97.34
21236;BME280;10775;42.678;26.324;2023-12-14T12:35:51;97783.19;;;14.63;98.20
21236;BME280;10775;42.678;26.324;2023-12-14T12:38:17;97787.56;;;14.62;98.15
21236;BME280;10775;42.678;26.324;2023-12-14T12:40:44;97783.09;;;14.64;98.20
21236;BME280;10775;42.678;26.324;2023-12-14T12:43:10;97798.97;;;14.63;98.69
21236;BME280;10775;42.678;26.324;2023-12-14T12:45:35;97799.09;;;14.60;98.59